Choctaw, Mississippi
Current Conditions -  °F | °C
As of 3:56 PM on Monday 24 Nov 2014 (Local Time) from KNMM Reporting Station
Broken Clouds Broken Clouds  
Wind Chill: 63°   Ceiling: 27000
Heat Index: 63°   Visibility: 10mi
Dew Point: 41°   Wind: 10mph
Humidity: 45%   Direction: 310°NW
Pressure: 29.95"   Gusts: NA
Location:  32.751°N, 89.1208°W
Report Text: KNMM 242156Z 31009KT 10SM BKN270 17/05 A2995 RMK AO2 SLP149 T01720050
Loading
Personal Weather Stations






























Interactive Weather Map New forecast layout! Learn more

10-Day Weather Forecast

Advertisements
Track Severe Weather on mobile